sensor_id;sensor_type;location;lat;lon;timestamp;pressure;altitude;pressure_sealevel;temperature;humidity
79645;BME280;69117;47.148;18.954;2023-11-21T00:01:46;100111.06;;;6.58;100.00
79645;BME280;69117;47.148;18.954;2023-11-21T00:04:48;100122.63;;;6.67;100.00
79645;BME280;69117;47.148;18.954;2023-11-21T00:07:50;100130.81;;;6.73;100.00
79645;BME280;69117;47.148;18.954;2023-11-21T00:10:52;100114.56;;;6.79;100.00
79645;BME280;69117;47.148;18.954;2023-11-21T00:13:54;100112.56;;;6.72;100.00
79645;BME280;69117;47.148;18.954;2023-11-21T00:16:56;100116.97;;;6.71;100.00
79645;BME280;69117;47.148;18.954;2023-11-21T00:19:57;100120.78;;;6.78;100.00
79645;BME280;69117;47.148;18.954;2023-11-21T00:23:01;100110.34;;;6.88;100.00
79645;BME280;69117;47.148;18.954;2023-11-21T00:26:04;100107.91;;;6.75;100.00
79645;BME280;69117;47.148;18.954;2023-11-21T00:29:05;100120.09;;;6.65;100.00
79645;BME280;69117;47.148;18.954;2023-11-21T00:32:10;100113.69;;;6.58;100.00
79645;BME280;69117;47.148;18.954;2023-11-21T00:35:11;100120.84;;;6.56;100.00
79645;BME280;69117;47.148;18.954;2023-11-21T00:38:13;100115.09;;;6.62;100.00
79645;BME280;69117;47.148;18.954;2023-11-21T00:41:14;100117.38;;;6.67;100.00
79645;BME280;69117;47.148;18.954;2023-11-21T00:44:16;100119.75;;;6.70;100.00
79645;BME280;69117;47.148;18.954;2023-11-21T00:47:18;100109.28;;;6.58;100.00
79645;BME280;69117;47.148;18.954;2023-11-21T00:50:21;100124.03;;;6.71;100.00
79645;BME280;69117;47.148;18.954;2023-11-21T00:53:23;100124.00;;;6.82;100.00
79645;BME280;69117;47.148;18.954;2023-11-21T00:56:24;100125.13;;;6.89;100.00
79645;BME280;69117;47.148;18.954;2023-11-21T00:59:26;100107.84;;;6.86;100.00
79645;BME280;69117;47.148;18.954;2023-11-21T01:02:28;100109.03;;;6.94;100.00
79645;BME280;69117;47.148;18.954;2023-11-21T01:05:30;100110.94;;;6.92;100.00
79645;BME280;69117;47.148;18.954;2023-11-21T01:08:32;100102.09;;;6.93;100.00
79645;BME280;69117;47.148;18.954;2023-11-21T01:11:37;100103.78;;;6.94;100.00
79645;BME280;69117;47.148;18.954;2023-11-21T01:14:39;100099.47;;;6.93;100.00
79645;BME280;69117;47.148;18.954;2023-11-21T01:17:40;100099.91;;;6.98;100.00
79645;BME280;69117;47.148;18.954;2023-11-21T01:20:42;100094.81;;;6.96;100.00
79645;BME280;69117;47.148;18.954;2023-11-21T01:23:45;100091.78;;;7.01;100.00
79645;BME280;69117;47.148;18.954;2023-11-21T01:26:46;100089.41;;;6.98;100.00
79645;BME280;69117;47.148;18.954;2023-11-21T01:29:48;100082.25;;;7.00;100.00
79645;BME280;69117;47.148;18.954;2023-11-21T01:32:50;100087.25;;;7.03;100.00
79645;BME280;69117;47.148;18.954;2023-11-21T01:35:51;100073.16;;;7.04;100.00
79645;BME280;69117;47.148;18.954;2023-11-21T01:38:56;100076.22;;;7.09;100.00
79645;BME280;69117;47.148;18.954;2023-11-21T01:42:00;100077.56;;;7.03;100.00
79645;BME280;69117;47.148;18.954;2023-11-21T01:45:02;100074.94;;;7.03;100.00
79645;BME280;69117;47.148;18.954;2023-11-21T01:48:06;100078.41;;;7.04;100.00
79645;BME280;69117;47.148;18.954;2023-11-21T01:51:08;100074.22;;;7.01;100.00
79645;BME280;69117;47.148;18.954;2023-11-21T01:54:10;100066.69;;;6.87;100.00
79645;BME280;69117;47.148;18.954;2023-11-21T01:57:19;100065.50;;;6.80;100.00
79645;BME280;69117;47.148;18.954;2023-11-21T02:00:22;100062.47;;;6.75;100.00
79645;BME280;69117;47.148;18.954;2023-11-21T02:03:25;100049.56;;;6.72;100.00
79645;BME280;69117;47.148;18.954;2023-11-21T02:06:27;100054.94;;;6.70;100.00
79645;BME280;69117;47.148;18.954;2023-11-21T02:09:32;100040.44;;;6.66;100.00
79645;BME280;69117;47.148;18.954;2023-11-21T02:12:42;100048.03;;;6.69;100.00
79645;BME280;69117;47.148;18.954;2023-11-21T02:15:44;100039.97;;;6.61;100.00
79645;BME280;69117;47.148;18.954;2023-11-21T02:18:45;100050.22;;;6.64;100.00
79645;BME280;69117;47.148;18.954;2023-11-21T02:21:52;100034.00;;;6.59;100.00
79645;BME280;69117;47.148;18.954;2023-11-21T02:24:54;100015.47;;;6.51;100.00
79645;BME280;69117;47.148;18.954;2023-11-21T02:27:57;100022.97;;;6.44;100.00
79645;BME280;69117;47.148;18.954;2023-11-21T02:30:58;100022.41;;;6.40;100.00
79645;BME280;69117;47.148;18.954;2023-11-21T02:34:00;100027.66;;;6.40;100.00
79645;BME280;69117;47.148;18.954;2023-11-21T02:37:02;100018.22;;;6.38;100.00
79645;BME280;69117;47.148;18.954;2023-11-21T02:40:04;100024.22;;;6.29;100.00
79645;BME280;69117;47.148;18.954;2023-11-21T02:43:11;100017.09;;;6.31;100.00
79645;BME280;69117;47.148;18.954;2023-11-21T02:46:12;100010.31;;;6.17;100.00
79645;BME280;69117;47.148;18.954;2023-11-21T02:49:14;100008.09;;;6.12;100.00
79645;BME280;69117;47.148;18.954;2023-11-21T02:52:16;100003.84;;;6.00;100.00
79645;BME280;69117;47.148;18.954;2023-11-21T02:55:18;100008.59;;;6.06;100.00
79645;BME280;69117;47.148;18.954;2023-11-21T02:58:19;100003.19;;;6.08;100.00
79645;BME280;69117;47.148;18.954;2023-11-21T03:01:21;99993.03;;;5.93;100.00
79645;BME280;69117;47.148;18.954;2023-11-21T03:04:23;100000.38;;;5.88;100.00
79645;BME280;69117;47.148;18.954;2023-11-21T03:07:24;100002.28;;;5.86;100.00
79645;BME280;69117;47.148;18.954;2023-11-21T03:10:26;99989.34;;;5.73;100.00
79645;BME280;69117;47.148;18.954;2023-11-21T03:13:29;99975.16;;;5.65;100.00
79645;BME280;69117;47.148;18.954;2023-11-21T03:16:32;99984.25;;;5.61;100.00
79645;BME280;69117;47.148;18.954;2023-11-21T03:19:34;99975.22;;;5.42;100.00
79645;BME280;69117;47.148;18.954;2023-11-21T03:22:35;99993.19;;;5.47;100.00
79645;BME280;69117;47.148;18.954;2023-11-21T03:25:37;99989.97;;;5.43;100.00
79645;BME280;69117;47.148;18.954;2023-11-21T03:28:39;99991.16;;;5.50;100.00
79645;BME280;69117;47.148;18.954;2023-11-21T03:31:41;99995.69;;;5.48;100.00
79645;BME280;69117;47.148;18.954;2023-11-21T03:35:12;99999.63;;;5.43;100.00
79645;BME280;69117;47.148;18.954;2023-11-21T03:38:13;99999.97;;;5.38;100.00
79645;BME280;69117;47.148;18.954;2023-11-21T03:41:15;100007.81;;;5.49;100.00
79645;BME280;69117;47.148;18.954;2023-11-21T03:44:17;100001.88;;;5.47;100.00
79645;BME280;69117;47.148;18.954;2023-11-21T03:47:19;100003.91;;;5.44;100.00
79645;BME280;69117;47.148;18.954;2023-11-21T03:50:21;100007.25;;;5.46;100.00
79645;BME280;69117;47.148;18.954;2023-11-21T03:53:22;100009.03;;;5.45;100.00
79645;BME280;69117;47.148;18.954;2023-11-21T03:56:24;100009.97;;;5.44;100.00
79645;BME280;69117;47.148;18.954;2023-11-21T03:59:26;99997.59;;;5.46;100.00
79645;BME280;69117;47.148;18.954;2023-11-21T04:02:28;99994.63;;;5.40;100.00
79645;BME280;69117;47.148;18.954;2023-11-21T04:05:31;100010.69;;;5.46;100.00
79645;BME280;69117;47.148;18.954;2023-11-21T04:08:32;100021.03;;;5.59;100.00
79645;BME280;69117;47.148;18.954;2023-11-21T04:11:35;100015.94;;;5.58;100.00
79645;BME280;69117;47.148;18.954;2023-11-21T04:14:36;100023.78;;;5.58;100.00
79645;BME280;69117;47.148;18.954;2023-11-21T04:17:38;100039.41;;;5.48;100.00
79645;BME280;69117;47.148;18.954;2023-11-21T04:20:40;100038.44;;;5.38;100.00
79645;BME280;69117;47.148;18.954;2023-11-21T04:23:42;100042.97;;;5.24;100.00
79645;BME280;69117;47.148;18.954;2023-11-21T04:26:44;100039.88;;;5.31;100.00
79645;BME280;69117;47.148;18.954;2023-11-21T04:29:46;100043.53;;;5.28;100.00
79645;BME280;69117;47.148;18.954;2023-11-21T04:32:47;100046.31;;;5.26;100.00
79645;BME280;69117;47.148;18.954;2023-11-21T04:35:49;100047.38;;;5.24;100.00
79645;BME280;69117;47.148;18.954;2023-11-21T04:38:51;100048.28;;;5.23;100.00
79645;BME280;69117;47.148;18.954;2023-11-21T04:41:52;100054.84;;;5.28;100.00
79645;BME280;69117;47.148;18.954;2023-11-21T04:44:54;100060.44;;;5.35;100.00
79645;BME280;69117;47.148;18.954;2023-11-21T04:47:56;100054.63;;;5.43;100.00
79645;BME280;69117;47.148;18.954;2023-11-21T04:50:58;100050.81;;;5.47;100.00
79645;BME280;69117;47.148;18.954;2023-11-21T04:53:59;100044.38;;;5.40;100.00
79645;BME280;69117;47.148;18.954;2023-11-21T04:57:01;100054.50;;;5.44;100.00
79645;BME280;69117;47.148;18.954;2023-11-21T05:00:03;100047.59;;;5.43;100.00
79645;BME280;69117;47.148;18.954;2023-11-21T05:03:09;100050.94;;;5.45;100.00
79645;BME280;69117;47.148;18.954;2023-11-21T05:06:11;100053.56;;;5.45;100.00
79645;BME280;69117;47.148;18.954;2023-11-21T05:09:13;100051.78;;;5.46;100.00
79645;BME280;69117;47.148;18.954;2023-11-21T05:12:14;100059.25;;;5.50;100.00
79645;BME280;69117;47.148;18.954;2023-11-21T05:15:16;100055.69;;;5.51;100.00
79645;BME280;69117;47.148;18.954;2023-11-21T05:18:19;100055.31;;;5.56;100.00
79645;BME280;69117;47.148;18.954;2023-11-21T05:21:20;100057.13;;;5.56;100.00
79645;BME280;69117;47.148;18.954;2023-11-21T05:24:22;100056.41;;;5.54;100.00
79645;BME280;69117;47.148;18.954;2023-11-21T05:27:24;100067.84;;;5.53;100.00
79645;BME280;69117;47.148;18.954;2023-11-21T05:30:26;100062.13;;;5.47;100.00
79645;BME280;69117;47.148;18.954;2023-11-21T05:33:27;100074.63;;;5.55;100.00
79645;BME280;69117;47.148;18.954;2023-11-21T05:36:29;100082.38;;;5.45;100.00
79645;BME280;69117;47.148;18.954;2023-11-21T05:39:31;100088.31;;;5.47;100.00
79645;BME280;69117;47.148;18.954;2023-11-21T05:42:34;100104.78;;;5.61;100.00
79645;BME280;69117;47.148;18.954;2023-11-21T05:45:35;100113.09;;;5.77;100.00
79645;BME280;69117;47.148;18.954;2023-11-21T05:48:37;100116.06;;;5.84;100.00
79645;BME280;69117;47.148;18.954;2023-11-21T05:51:38;100119.53;;;6.07;100.00
79645;BME280;69117;47.148;18.954;2023-11-21T05:54:40;100131.09;;;6.15;100.00
79645;BME280;69117;47.148;18.954;2023-11-21T05:57:43;100123.56;;;6.33;100.00
79645;BME280;69117;47.148;18.954;2023-11-21T06:00:45;100137.84;;;6.29;100.00
79645;BME280;69117;47.148;18.954;2023-11-21T06:03:47;100144.66;;;6.32;100.00
79645;BME280;69117;47.148;18.954;2023-11-21T06:06:51;100144.41;;;6.35;100.00
79645;BME280;69117;47.148;18.954;2023-11-21T06:09:52;100127.50;;;6.28;100.00
79645;BME280;69117;47.148;18.954;2023-11-21T06:12:54;100112.03;;;6.13;100.00
79645;BME280;69117;47.148;18.954;2023-11-21T06:15:56;100127.41;;;6.07;100.00
79645;BME280;69117;47.148;18.954;2023-11-21T06:18:57;100135.22;;;6.40;100.00
79645;BME280;69117;47.148;18.954;2023-11-21T06:21:59;100124.44;;;6.55;100.00
79645;BME280;69117;47.148;18.954;2023-11-21T06:25:03;100125.84;;;6.59;100.00
79645;BME280;69117;47.148;18.954;2023-11-21T06:28:09;100129.16;;;6.72;100.00
79645;BME280;69117;47.148;18.954;2023-11-21T06:31:11;100144.09;;;6.93;100.00
79645;BME280;69117;47.148;18.954;2023-11-21T06:34:13;100135.91;;;6.86;100.00
79645;BME280;69117;47.148;18.954;2023-11-21T06:37:15;100141.94;;;6.98;100.00
79645;BME280;69117;47.148;18.954;2023-11-21T06:40:18;100149.84;;;6.86;100.00
79645;BME280;69117;47.148;18.954;2023-11-21T06:43:21;100141.72;;;6.89;100.00
79645;BME280;69117;47.148;18.954;2023-11-21T06:46:23;100152.75;;;7.04;100.00
79645;BME280;69117;47.148;18.954;2023-11-21T06:49:25;100145.78;;;6.94;100.00
79645;BME280;69117;47.148;18.954;2023-11-21T06:52:27;100153.34;;;7.08;100.00
79645;BME280;69117;47.148;18.954;2023-11-21T06:55:29;100148.22;;;7.06;100.00
79645;BME280;69117;47.148;18.954;2023-11-21T06:58:33;100151.44;;;7.10;100.00
79645;BME280;69117;47.148;18.954;2023-11-21T07:01:35;100155.22;;;7.17;100.00
79645;BME280;69117;47.148;18.954;2023-11-21T07:04:40;100146.50;;;7.17;100.00
79645;BME280;69117;47.148;18.954;2023-11-21T07:07:42;100145.22;;;7.11;100.00
79645;BME280;69117;47.148;18.954;2023-11-21T07:10:45;100157.00;;;7.17;100.00
79645;BME280;69117;47.148;18.954;2023-11-21T07:13:46;100157.00;;;7.17;100.00
79645;BME280;69117;47.148;18.954;2023-11-21T07:16:48;100155.34;;;7.16;100.00
79645;BME280;69117;47.148;18.954;2023-11-21T07:19:50;100155.78;;;7.21;100.00
79645;BME280;69117;47.148;18.954;2023-11-21T07:22:52;100157.34;;;7.23;100.00
79645;BME280;69117;47.148;18.954;2023-11-21T07:25:55;100154.72;;;7.23;100.00
79645;BME280;69117;47.148;18.954;2023-11-21T07:28:57;100164.00;;;7.27;100.00
79645;BME280;69117;47.148;18.954;2023-11-21T07:32:00;100156.84;;;7.29;100.00
79645;BME280;69117;47.148;18.954;2023-11-21T07:35:02;100150.09;;;7.16;100.00
79645;BME280;69117;47.148;18.954;2023-11-21T07:38:04;100157.84;;;7.17;100.00
79645;BME280;69117;47.148;18.954;2023-11-21T07:41:07;100162.38;;;7.15;100.00
79645;BME280;69117;47.148;18.954;2023-11-21T07:44:26;100165.03;;;7.15;100.00
79645;BME280;69117;47.148;18.954;2023-11-21T07:47:28;100166.41;;;7.19;100.00
79645;BME280;69117;47.148;18.954;2023-11-21T07:50:30;100159.50;;;7.18;100.00
79645;BME280;69117;47.148;18.954;2023-11-21T07:53:32;100168.84;;;7.32;100.00
79645;BME280;69117;47.148;18.954;2023-11-21T07:56:34;100147.25;;;7.28;100.00
79645;BME280;69117;47.148;18.954;2023-11-21T07:59:35;100143.81;;;7.28;100.00
79645;BME280;69117;47.148;18.954;2023-11-21T08:02:38;100146.31;;;7.29;100.00
79645;BME280;69117;47.148;18.954;2023-11-21T08:05:39;100154.94;;;7.41;100.00
79645;BME280;69117;47.148;18.954;2023-11-21T08:08:41;100150.97;;;7.47;100.00
79645;BME280;69117;47.148;18.954;2023-11-21T08:11:44;100156.06;;;7.39;100.00
79645;BME280;69117;47.148;18.954;2023-11-21T08:14:46;100147.25;;;7.49;100.00
79645;BME280;69117;47.148;18.954;2023-11-21T08:17:47;100149.78;;;7.51;100.00
79645;BME280;69117;47.148;18.954;2023-11-21T08:20:50;100147.41;;;7.48;100.00
79645;BME280;69117;47.148;18.954;2023-11-21T08:23:51;100155.97;;;7.50;100.00
79645;BME280;69117;47.148;18.954;2023-11-21T08:26:56;100164.03;;;7.58;100.00
79645;BME280;69117;47.148;18.954;2023-11-21T08:29:58;100144.25;;;7.54;100.00
79645;BME280;69117;47.148;18.954;2023-11-21T08:33:00;100159.34;;;7.62;100.00
79645;BME280;69117;47.148;18.954;2023-11-21T08:36:07;100163.19;;;7.78;100.00
79645;BME280;69117;47.148;18.954;2023-11-21T08:39:08;100160.97;;;7.84;100.00
79645;BME280;69117;47.148;18.954;2023-11-21T08:42:11;100160.69;;;7.77;100.00
79645;BME280;69117;47.148;18.954;2023-11-21T08:45:16;100169.53;;;7.76;100.00
79645;BME280;69117;47.148;18.954;2023-11-21T08:48:19;100168.16;;;7.72;100.00
79645;BME280;69117;47.148;18.954;2023-11-21T08:51:20;100175.38;;;7.79;100.00
79645;BME280;69117;47.148;18.954;2023-11-21T08:54:28;100168.97;;;7.72;100.00
79645;BME280;69117;47.148;18.954;2023-11-21T08:57:30;100170.31;;;7.67;100.00
79645;BME280;69117;47.148;18.954;2023-11-21T09:00:32;100171.16;;;7.67;100.00
79645;BME280;69117;47.148;18.954;2023-11-21T09:03:34;100172.81;;;7.68;100.00
79645;BME280;69117;47.148;18.954;2023-11-21T09:06:36;100183.47;;;7.67;100.00
79645;BME280;69117;47.148;18.954;2023-11-21T09:09:38;100195.34;;;7.61;100.00
79645;BME280;69117;47.148;18.954;2023-11-21T09:12:39;100179.09;;;7.56;100.00
79645;BME280;69117;47.148;18.954;2023-11-21T09:15:41;100172.91;;;7.57;100.00
79645;BME280;69117;47.148;18.954;2023-11-21T09:18:44;100179.25;;;7.54;100.00
79645;BME280;69117;47.148;18.954;2023-11-21T09:21:46;100169.25;;;7.48;100.00
79645;BME280;69117;47.148;18.954;2023-11-21T09:24:48;100173.44;;;7.51;100.00
79645;BME280;69117;47.148;18.954;2023-11-21T09:27:50;100157.00;;;7.38;100.00
79645;BME280;69117;47.148;18.954;2023-11-21T09:30:51;100156.38;;;7.45;100.00
79645;BME280;69117;47.148;18.954;2023-11-21T09:33:53;100147.66;;;7.45;100.00
79645;BME280;69117;47.148;18.954;2023-11-21T09:36:55;100150.28;;;7.45;100.00
79645;BME280;69117;47.148;18.954;2023-11-21T09:39:57;100136.44;;;7.43;100.00
79645;BME280;69117;47.148;18.954;2023-11-21T09:42:58;100132.16;;;7.42;100.00
79645;BME280;69117;47.148;18.954;2023-11-21T09:46:01;100130.41;;;7.52;100.00
79645;BME280;69117;47.148;18.954;2023-11-21T09:49:04;100107.72;;;7.51;100.00
79645;BME280;69117;47.148;18.954;2023-11-21T09:52:08;100120.75;;;7.62;100.00
79645;BME280;69117;47.148;18.954;2023-11-21T09:55:10;100115.50;;;7.62;100.00
79645;BME280;69117;47.148;18.954;2023-11-21T09:58:17;100108.31;;;7.64;100.00
79645;BME280;69117;47.148;18.954;2023-11-21T10:01:20;100112.03;;;7.62;100.00
79645;BME280;69117;47.148;18.954;2023-11-21T10:04:22;100100.84;;;7.60;100.00
79645;BME280;69117;47.148;18.954;2023-11-21T10:07:24;100101.66;;;7.60;100.00
79645;BME280;69117;47.148;18.954;2023-11-21T10:10:27;100101.53;;;7.62;100.00
79645;BME280;69117;47.148;18.954;2023-11-21T10:13:31;100104.81;;;7.54;100.00
79645;BME280;69117;47.148;18.954;2023-11-21T10:16:33;100102.75;;;7.57;100.00
79645;BME280;69117;47.148;18.954;2023-11-21T10:19:36;100104.81;;;7.54;100.00
79645;BME280;69117;47.148;18.954;2023-11-21T10:22:41;100091.22;;;7.49;100.00
79645;BME280;69117;47.148;18.954;2023-11-21T10:25:43;100099.69;;;7.52;100.00
79645;BME280;69117;47.148;18.954;2023-11-21T10:29:03;100101.09;;;7.56;100.00
79645;BME280;69117;47.148;18.954;2023-11-21T10:32:05;100092.50;;;7.54;100.00
79645;BME280;69117;47.148;18.954;2023-11-21T10:35:08;100093.63;;;7.62;100.00
79645;BME280;69117;47.148;18.954;2023-11-21T10:38:12;100102.19;;;7.54;100.00
79645;BME280;69117;47.148;18.954;2023-11-21T10:41:15;100106.09;;;7.60;100.00
79645;BME280;69117;47.148;18.954;2023-11-21T10:44:18;100084.47;;;7.56;100.00
79645;BME280;69117;47.148;18.954;2023-11-21T10:47:24;100095.59;;;7.60;100.00
79645;BME280;69117;47.148;18.954;2023-11-21T10:50:27;100098.31;;;7.58;100.00
79645;BME280;69117;47.148;18.954;2023-11-21T10:53:29;100092.72;;;7.72;100.00
79645;BME280;69117;47.148;18.954;2023-11-21T10:56:32;100079.41;;;7.64;100.00
79645;BME280;69117;47.148;18.954;2023-11-21T10:59:36;100086.31;;;7.65;100.00
79645;BME280;69117;47.148;18.954;2023-11-21T11:02:38;100074.03;;;7.66;100.00
79645;BME280;69117;47.148;18.954;2023-11-21T11:05:42;100077.34;;;7.68;100.00
79645;BME280;69117;47.148;18.954;2023-11-21T11:08:49;100092.19;;;7.78;100.00
79645;BME280;69117;47.148;18.954;2023-11-21T11:11:51;100086.75;;;7.70;100.00
79645;BME280;69117;47.148;18.954;2023-11-21T11:14:55;100090.66;;;7.76;100.00
79645;BME280;69117;47.148;18.954;2023-11-21T11:17:57;100086.38;;;7.75;100.00
79645;BME280;69117;47.148;18.954;2023-11-21T11:21:11;100077.63;;;7.74;100.00
79645;BME280;69117;47.148;18.954;2023-11-21T11:28:07;100082.13;;;7.93;100.00
79645;BME280;69117;47.148;18.954;2023-11-21T11:34:50;100074.66;;;7.98;100.00
79645;BME280;69117;47.148;18.954;2023-11-21T11:37:53;100069.41;;;7.98;100.00
79645;BME280;69117;47.148;18.954;2023-11-21T11:40:56;100068.03;;;8.04;100.00
79645;BME280;69117;47.148;18.954;2023-11-21T11:43:58;100073.84;;;7.98;100.00
79645;BME280;69117;47.148;18.954;2023-11-21T11:47:00;100067.75;;;7.97;100.00
79645;BME280;69117;47.148;18.954;2023-11-21T11:50:08;100065.69;;;8.11;100.00
79645;BME280;69117;47.148;18.954;2023-11-21T11:53:22;100055.44;;;8.08;100.00
79645;BME280;69117;47.148;18.954;2023-11-21T11:56:25;100057.94;;;8.19;100.00
79645;BME280;69117;47.148;18.954;2023-11-21T11:59:27;100061.13;;;8.22;100.00
79645;BME280;69117;47.148;18.954;2023-11-21T12:02:36;100052.41;;;8.12;100.00
79645;BME280;69117;47.148;18.954;2023-11-21T12:05:40;100052.53;;;8.11;100.00
79645;BME280;69117;47.148;18.954;2023-11-21T12:08:43;100044.13;;;8.26;100.00
79645;BME280;69117;47.148;18.954;2023-11-21T12:11:46;100047.16;;;8.32;100.00
79645;BME280;69117;47.148;18.954;2023-11-21T12:14:48;100044.41;;;8.33;100.00
79645;BME280;69117;47.148;18.954;2023-11-21T12:17:50;100042.91;;;8.40;100.00
79645;BME280;69117;47.148;18.954;2023-11-21T12:20:52;100032.34;;;8.31;100.00
79645;BME280;69117;47.148;18.954;2023-11-21T12:23:54;100039.13;;;8.33;100.00
79645;BME280;69117;47.148;18.954;2023-11-21T12:26:55;100032.91;;;8.24;100.00
79645;BME280;69117;47.148;18.954;2023-11-21T12:29:57;100028.34;;;8.26;100.00
79645;BME280;69117;47.148;18.954;2023-11-21T12:33:00;100029.47;;;8.43;100.00
79645;BME280;69117;47.148;18.954;2023-11-21T12:36:03;100030.84;;;8.57;100.00
79645;BME280;69117;47.148;18.954;2023-11-21T12:39:07;100033.22;;;8.51;100.00
79645;BME280;69117;47.148;18.954;2023-11-21T12:42:11;100025.44;;;8.59;100.00
79645;BME280;69117;47.148;18.954;2023-11-21T12:48:17;100033.22;;;8.51;100.00
79645;BME280;69117;47.148;18.954;2023-11-21T12:51:25;100027.97;;;8.51;100.00
79645;BME280;69117;47.148;18.954;2023-11-21T12:54:27;100017.69;;;8.67;100.00
79645;BME280;69117;47.148;18.954;2023-11-21T12:57:29;100027.38;;;8.66;100.00
79645;BME280;69117;47.148;18.954;2023-11-21T13:00:33;100021.56;;;8.63;100.00
79645;BME280;69117;47.148;18.954;2023-11-21T13:03:47;100030.44;;;8.71;100.00
79645;BME280;69117;47.148;18.954;2023-11-21T13:06:49;100024.91;;;8.75;100.00
79645;BME280;69117;47.148;18.954;2023-11-21T13:09:54;100015.03;;;8.77;100.00
79645;BME280;69117;47.148;18.954;2023-11-21T13:13:05;100014.06;;;8.78;100.00
79645;BME280;69117;47.148;18.954;2023-11-21T13:16:07;100007.81;;;8.79;100.00
79645;BME280;69117;47.148;18.954;2023-11-21T13:19:09;100010.88;;;8.84;100.00
79645;BME280;69117;47.148;18.954;2023-11-21T13:22:11;100003.25;;;8.81;100.00
79645;BME280;69117;47.148;18.954;2023-11-21T13:25:13;100014.06;;;8.87;100.00
79645;BME280;69117;47.148;18.954;2023-11-21T13:28:16;100023.47;;;8.90;100.00
79645;BME280;69117;47.148;18.954;2023-11-21T13:31:19;100020.16;;;8.78;100.00
79645;BME280;69117;47.148;18.954;2023-11-21T13:34:34;100014.47;;;8.83;100.00
79645;BME280;69117;47.148;18.954;2023-11-21T13:37:38;100009.91;;;8.75;100.00
79645;BME280;69117;47.148;18.954;2023-11-21T13:40:40;100019.91;;;8.71;100.00
79645;BME280;69117;47.148;18.954;2023-11-21T13:43:46;100022.38;;;8.73;100.00
79645;BME280;69117;47.148;18.954;2023-11-21T13:46:52;100020.84;;;8.70;100.00
79645;BME280;69117;47.148;18.954;2023-11-21T13:49:54;100027.22;;;8.68;100.00
79645;BME280;69117;47.148;18.954;2023-11-21T13:52:55;100028.50;;;8.64;100.00
79645;BME280;69117;47.148;18.954;2023-11-21T13:55:57;100036.00;;;8.68;100.00
79645;BME280;69117;47.148;18.954;2023-11-21T13:58:59;100020.47;;;8.65;100.00
79645;BME280;69117;47.148;18.954;2023-11-21T14:02:10;100035.13;;;8.68;100.00
79645;BME280;69117;47.148;18.954;2023-11-21T14:05:22;100041.66;;;8.64;100.00
79645;BME280;69117;47.148;18.954;2023-11-21T14:08:30;100046.66;;;8.57;100.00
79645;BME280;69117;47.148;18.954;2023-11-21T14:11:33;100047.88;;;8.53;100.00
79645;BME280;69117;47.148;18.954;2023-11-21T14:14:46;100041.78;;;8.53;100.00
79645;BME280;69117;47.148;18.954;2023-11-21T14:17:49;100045.25;;;8.53;100.00
79645;BME280;69117;47.148;18.954;2023-11-21T14:20:51;100039.31;;;8.51;100.00
79645;BME280;69117;47.148;18.954;2023-11-21T14:23:53;100045.25;;;8.43;100.00
79645;BME280;69117;47.148;18.954;2023-11-21T14:26:56;100045.78;;;8.37;100.00
79645;BME280;69117;47.148;18.954;2023-11-21T14:29:58;100041.34;;;8.28;100.00
79645;BME280;69117;47.148;18.954;2023-11-21T14:33:00;100040.09;;;8.22;100.00
79645;BME280;69117;47.148;18.954;2023-11-21T14:36:03;100036.78;;;8.20;100.00
79645;BME280;69117;47.148;18.954;2023-11-21T14:39:05;100037.19;;;8.16;100.00
79645;BME280;69117;47.148;18.954;2023-11-21T14:42:17;100037.88;;;8.08;100.00
79645;BME280;69117;47.148;18.954;2023-11-21T14:45:26;100037.44;;;8.03;100.00
79645;BME280;69117;47.148;18.954;2023-11-21T14:48:28;100033.84;;;8.04;100.00
79645;BME280;69117;47.148;18.954;2023-11-21T14:51:52;100031.75;;;7.98;100.00
79645;BME280;69117;47.148;18.954;2023-11-21T14:55:02;100040.19;;;8.01;100.00
79645;BME280;69117;47.148;18.954;2023-11-21T14:58:27;100037.16;;;7.96;100.00
79645;BME280;69117;47.148;18.954;2023-11-21T15:01:31;100023.56;;;7.91;100.00
79645;BME280;69117;47.148;18.954;2023-11-21T15:04:52;100027.47;;;7.97;100.00
79645;BME280;69117;47.148;18.954;2023-11-21T15:08:00;100024.56;;;7.90;100.00
79645;BME280;69117;47.148;18.954;2023-11-21T15:11:22;100027.31;;;7.89;100.00
79645;BME280;69117;47.148;18.954;2023-11-21T15:14:36;100025.66;;;7.88;100.00
79645;BME280;69117;47.148;18.954;2023-11-21T15:17:38;100026.19;;;7.82;100.00
79645;BME280;69117;47.148;18.954;2023-11-21T15:20:41;100028.41;;;7.86;100.00
79645;BME280;69117;47.148;18.954;2023-11-21T15:23:43;100032.97;;;7.84;100.00
79645;BME280;69117;47.148;18.954;2023-11-21T15:26:45;100030.03;;;7.77;100.00
79645;BME280;69117;47.148;18.954;2023-11-21T15:29:46;100035.19;;;7.79;100.00
79645;BME280;69117;47.148;18.954;2023-11-21T15:32:48;100027.41;;;7.77;100.00
79645;BME280;69117;47.148;18.954;2023-11-21T15:35:50;100030.03;;;7.77;100.00
79645;BME280;69117;47.148;18.954;2023-11-21T15:38:53;100031.84;;;7.77;100.00
79645;BME280;69117;47.148;18.954;2023-11-21T15:41:55;100032.66;;;7.77;100.00
79645;BME280;69117;47.148;18.954;2023-11-21T15:44:57;100036.16;;;7.78;100.00
79645;BME280;69117;47.148;18.954;2023-11-21T15:47:58;100032.53;;;7.79;100.00
79645;BME280;69117;47.148;18.954;2023-11-21T15:51:02;100019.66;;;7.76;100.00
79645;BME280;69117;47.148;18.954;2023-11-21T15:54:04;100044.44;;;7.83;100.00
79645;BME280;69117;47.148;18.954;2023-11-21T15:57:06;100048.88;;;7.83;100.00